createdAt,value
2023-05-15T00:02:16.886Z,99733.09
2023-05-15T00:04:44.126Z,99729.32
2023-05-15T00:07:11.353Z,99726.25
2023-05-15T00:09:38.591Z,99723.33
2023-05-15T00:12:06.367Z,99724.51
2023-05-15T00:14:33.501Z,99723.30
2023-05-15T00:17:00.656Z,99725.13
2023-05-15T00:19:27.914Z,99722.74
2023-05-15T00:21:55.806Z,99722.69
2023-05-15T00:24:22.926Z,99724.27
2023-05-15T00:26:50.075Z,99721.60
2023-05-15T00:29:17.247Z,99720.88
2023-05-15T00:31:45.417Z,99717.48
2023-05-15T00:34:12.661Z,99717.27
2023-05-15T00:36:39.815Z,99717.56
2023-05-15T00:39:06.964Z,99713.00
2023-05-15T00:41:34.322Z,99711.69
2023-05-15T00:44:01.791Z,99711.23
2023-05-15T00:46:29.329Z,99709.07
2023-05-15T00:48:56.491Z,99707.55
2023-05-15T00:53:28.754Z,99706.17
2023-05-15T00:55:57.647Z,99704.94
2023-05-15T00:58:25.130Z,99705.73
2023-05-15T01:00:53.264Z,99702.75
2023-05-15T01:03:20.731Z,99700.07
2023-05-15T01:05:48.025Z,99701.11
2023-05-15T01:08:22.128Z,99699.27
2023-05-15T01:10:51.224Z,99702.50
2023-05-15T01:13:22.474Z,99702.27
2023-05-15T01:15:50.042Z,99700.13
2023-05-15T01:18:17.339Z,99698.86
2023-05-15T01:20:57.342Z,99698.38
2023-05-15T01:23:34.836Z,99696.20
2023-05-15T01:26:20.112Z,99696.86
2023-05-15T01:28:50.640Z,99698.20
2023-05-15T01:31:19.738Z,99699.49
2023-05-15T01:33:50.269Z,99702.27
2023-05-15T01:36:24.997Z,99703.73
2023-05-15T01:38:57.654Z,99698.55
2023-05-15T01:41:47.153Z,99701.44
2023-05-15T01:44:21.878Z,99700.85
2023-05-15T01:46:50.541Z,99700.95
2023-05-15T01:49:19.222Z,99698.23
2023-05-15T01:51:49.473Z,99695.98
2023-05-15T01:54:16.633Z,99697.90
2023-05-15T01:56:45.530Z,99695.76
2023-05-15T01:59:13.708Z,99698.48
2023-05-15T02:01:41.222Z,99693.23
2023-05-15T02:04:09.016Z,99691.36
2023-05-15T02:06:36.378Z,99691.21
2023-05-15T02:09:03.725Z,99691.84
2023-05-15T02:11:31.186Z,99691.66
2023-05-15T02:13:58.438Z,99691.67
2023-05-15T02:16:25.646Z,99691.50
2023-05-15T02:18:53.431Z,99693.26
2023-05-15T02:21:20.709Z,99696.19
2023-05-15T02:23:47.965Z,99702.83
2023-05-15T02:26:36.921Z,99696.89
2023-05-15T02:29:23.429Z,99701.83
2023-05-15T02:31:56.452Z,99701.33
2023-05-15T02:34:33.101Z,99704.23
2023-05-15T02:37:01.459Z,99706.66
2023-05-15T02:39:28.625Z,99707.80
2023-05-15T02:41:55.871Z,99702.58
2023-05-15T02:44:23.329Z,99699.13
2023-05-15T02:46:50.638Z,99697.60
2023-05-15T02:49:18.246Z,99697.73
2023-05-15T02:51:47.960Z,99696.62
2023-05-15T02:54:15.107Z,99698.38
2023-05-15T02:56:42.254Z,99699.02
2023-05-15T02:59:09.507Z,99698.52
2023-05-15T03:01:36.799Z,99696.45
2023-05-15T03:04:04.332Z,99696.33
2023-05-15T03:06:31.985Z,99701.44
2023-05-15T03:08:59.136Z,99694.40
2023-05-15T03:11:27.318Z,99694.12
2023-05-15T03:13:54.464Z,99692.23
2023-05-15T03:16:21.627Z,99694.02
2023-05-15T03:18:48.769Z,99697.98
2023-05-15T03:21:16.112Z,99699.41
2023-05-15T03:23:43.265Z,99698.38
2023-05-15T03:26:10.416Z,99701.11
2023-05-15T03:28:37.777Z,99701.30
2023-05-15T03:31:08.959Z,99704.42
2023-05-15T03:33:36.170Z,99707.52
2023-05-15T03:36:03.553Z,99709.98
2023-05-15T03:38:30.682Z,99713.15
2023-05-15T03:40:57.826Z,99713.64
2023-05-15T03:43:25.285Z,99714.83
2023-05-15T03:45:52.553Z,99712.73
2023-05-15T03:48:19.692Z,99709.81
2023-05-15T03:50:46.856Z,99709.93
2023-05-15T03:53:13.996Z,99715.03
2023-05-15T03:55:41.147Z,99711.60
2023-05-15T03:58:08.299Z,99710.63
2023-05-15T04:00:35.453Z,99705.98
2023-05-15T04:03:02.749Z,99708.96
2023-05-15T04:05:30.201Z,99710.44
2023-05-15T04:07:57.430Z,99714.54
2023-05-15T04:10:24.813Z,99717.17
2023-05-15T04:12:52.239Z,99719.33
2023-05-15T04:15:20.238Z,99718.75
2023-05-15T04:17:48.426Z,99716.96
2023-05-15T04:20:17.698Z,99713.75
2023-05-15T04:22:45.141Z,99711.56
2023-05-15T04:25:12.601Z,99712.98
2023-05-15T04:27:39.752Z,99709.98
2023-05-15T04:30:07.952Z,99708.77
2023-05-15T04:32:36.125Z,99708.55
2023-05-15T04:35:09.679Z,99707.98
2023-05-15T04:37:37.473Z,99705.57
2023-05-15T04:40:06.842Z,99699.31
2023-05-15T04:42:34.553Z,99702.91
2023-05-15T04:45:03.142Z,99698.98
2023-05-15T04:47:30.392Z,99699.70
2023-05-15T04:49:57.534Z,99698.34
2023-05-15T04:52:25.297Z,99696.90
2023-05-15T04:54:53.889Z,99698.04
2023-05-15T04:57:21.768Z,99700.95
2023-05-15T04:59:49.026Z,99698.88
2023-05-15T05:02:16.163Z,99698.96
2023-05-15T05:04:43.630Z,99696.86
2023-05-15T05:07:10.707Z,99693.42
2023-05-15T05:09:39.623Z,99695.80
2023-05-15T05:12:08.347Z,99694.16
2023-05-15T05:14:35.515Z,99687.81
2023-05-15T05:17:02.977Z,99688.81
2023-05-15T05:19:30.231Z,99689.49
2023-05-15T05:21:58.720Z,99686.19
2023-05-15T05:24:25.882Z,99687.16
2023-05-15T05:26:53.033Z,99684.70
2023-05-15T05:29:20.174Z,99684.58
2023-05-15T05:31:47.788Z,99681.66
2023-05-15T05:34:14.988Z,99682.08
2023-05-15T05:36:42.445Z,99681.06
2023-05-15T05:39:09.596Z,99680.75
2023-05-15T05:41:38.077Z,99683.57
2023-05-15T05:44:05.337Z,99680.66
2023-05-15T05:46:32.504Z,99679.40
2023-05-15T05:48:59.736Z,99675.48
2023-05-15T05:51:26.887Z,99674.45
2023-05-15T05:53:54.040Z,99677.59
2023-05-15T05:56:22.112Z,99677.64
2023-05-15T05:58:49.263Z,99675.17
2023-05-15T06:01:16.925Z,99670.66
2023-05-15T06:03:44.146Z,99667.64
2023-05-15T06:06:11.871Z,99665.48
2023-05-15T06:08:38.970Z,99669.11
2023-05-15T06:11:06.659Z,99667.98
2023-05-15T06:13:33.739Z,99665.59
2023-05-15T06:16:00.789Z,99665.10
2023-05-15T06:18:27.944Z,99665.23
2023-05-15T06:20:55.163Z,99665.81
2023-05-15T06:23:24.376Z,99660.88
2023-05-15T06:25:51.716Z,99659.36
2023-05-15T06:28:18.969Z,99656.27
2023-05-15T06:30:47.463Z,99652.38
2023-05-15T06:33:14.653Z,99650.92
2023-05-15T06:35:41.757Z,99646.88
2023-05-15T06:38:08.910Z,99641.27
2023-05-15T06:40:36.164Z,99639.80
2023-05-15T06:43:03.933Z,99638.07
2023-05-15T06:45:31.593Z,99637.83
2023-05-15T06:48:01.649Z,99635.15
2023-05-15T06:50:29.272Z,99634.25
2023-05-15T06:52:56.432Z,99637.67
2023-05-15T06:55:23.722Z,99634.96
2023-05-15T06:57:51.147Z,99634.35
2023-05-15T07:00:18.837Z,99631.70
2023-05-15T07:02:46.298Z,99627.56
2023-05-15T07:05:14.599Z,99624.58
2023-05-15T07:07:42.095Z,99625.45
2023-05-15T07:10:09.670Z,99622.55
2023-05-15T07:12:36.815Z,99622.90
2023-05-15T07:15:05.373Z,99619.34
2023-05-15T07:17:33.821Z,99618.64
2023-05-15T07:20:01.153Z,99614.13
2023-05-15T07:22:29.418Z,99609.77
2023-05-15T07:24:56.660Z,99608.42
2023-05-15T07:27:23.815Z,99610.98
2023-05-15T07:29:50.977Z,99609.16
2023-05-15T07:32:18.134Z,99606.04
2023-05-15T07:34:45.378Z,99603.33
2023-05-15T07:37:13.241Z,99602.66
2023-05-15T07:39:41.291Z,99597.89
2023-05-15T07:42:08.573Z,99594.64
2023-05-15T07:44:36.023Z,99591.34
2023-05-15T07:47:03.902Z,99589.02
2023-05-15T07:49:31.149Z,99588.14
2023-05-15T07:51:58.295Z,99588.50
2023-05-15T07:54:27.084Z,99585.03
2023-05-15T07:56:54.666Z,99584.02
2023-05-15T07:59:21.952Z,99579.59
2023-05-15T08:01:49.151Z,99575.42
2023-05-15T08:04:16.323Z,99577.14
2023-05-15T08:06:44.613Z,99582.16
2023-05-15T08:09:13.102Z,99576.40
2023-05-15T08:11:40.219Z,99576.73
2023-05-15T08:14:07.390Z,99576.99
2023-05-15T08:16:34.680Z,99574.60
2023-05-15T08:19:05.063Z,99572.77
2023-05-15T08:21:32.611Z,99569.48
2023-05-15T08:24:00.828Z,99567.48
2023-05-15T08:26:28.052Z,99569.98
2023-05-15T08:28:55.188Z,99562.64
2023-05-15T08:31:22.418Z,99560.20
2023-05-15T08:33:49.816Z,99563.69
2023-05-15T08:36:18.589Z,99556.64
2023-05-15T08:38:45.951Z,99557.90
2023-05-15T08:41:38.676Z,99553.75
2023-05-15T08:44:07.088Z,99558.56
2023-05-15T08:46:34.849Z,99552.68
2023-05-15T08:49:03.885Z,99551.16
2023-05-15T08:51:31.099Z,99550.73
2023-05-15T08:53:58.349Z,99549.00
2023-05-15T08:56:25.501Z,99547.64
2023-05-15T08:58:54.262Z,99550.12
2023-05-15T09:01:21.487Z,99551.85
2023-05-15T09:03:48.810Z,99550.19
2023-05-15T09:06:16.158Z,99549.94
2023-05-15T09:08:43.310Z,99549.10
2023-05-15T09:11:10.461Z,99546.23
2023-05-15T09:13:37.621Z,99544.38
2023-05-15T09:16:05.320Z,99541.15
2023-05-15T09:18:32.457Z,99545.49
2023-05-15T09:21:29.180Z,99541.36
2023-05-15T09:24:13.433Z,99532.53
2023-05-15T09:26:40.784Z,99533.89
2023-05-15T09:29:07.946Z,99534.55
2023-05-15T09:31:35.192Z,99532.45
2023-05-15T09:34:04.802Z,99533.35
2023-05-15T09:36:32.880Z,99530.35
2023-05-15T09:39:00.732Z,99524.71
2023-05-15T09:41:28.911Z,99525.62
2023-05-15T09:43:57.189Z,99523.25
2023-05-15T09:46:24.604Z,99521.97
2023-05-15T09:48:55.915Z,99526.86
2023-05-15T09:51:23.056Z,99525.86
2023-05-15T09:53:51.723Z,99525.72
2023-05-15T09:56:18.997Z,99520.13
2023-05-15T09:58:56.661Z,99511.30
2023-05-15T10:01:24.195Z,99516.55
2023-05-15T10:04:03.801Z,99514.98
2023-05-15T10:06:37.836Z,99518.55
2023-05-15T10:09:05.366Z,99513.94
2023-05-15T10:11:34.677Z,99515.66
2023-05-15T10:14:09.518Z,99517.20
2023-05-15T10:16:38.120Z,99513.12
2023-05-15T10:19:08.853Z,99513.89
2023-05-15T10:21:37.784Z,99507.17
2023-05-15T10:24:05.291Z,99498.59
2023-05-15T10:26:38.465Z,99494.90
2023-05-15T10:29:16.597Z,99498.77
2023-05-15T10:31:43.755Z,99500.51
2023-05-15T10:34:11.300Z,99498.59
2023-05-15T10:36:38.936Z,99500.02
2023-05-15T10:39:07.232Z,99499.23
2023-05-15T10:41:36.810Z,99491.78
2023-05-15T10:44:03.992Z,99478.91
2023-05-15T10:46:32.816Z,99473.84
2023-05-15T10:49:00.865Z,99464.83
2023-05-15T10:51:29.242Z,99459.36
2023-05-15T10:53:56.901Z,99463.80
2023-05-15T10:56:29.866Z,99463.05
2023-05-15T10:58:57.153Z,99449.30
2023-05-15T11:01:32.414Z,99443.40
2023-05-15T11:04:13.572Z,99440.30
2023-05-15T11:06:45.274Z,99439.90
2023-05-15T11:09:33.162Z,99434.49
2023-05-15T11:12:05.094Z,99439.85
2023-05-15T11:14:34.887Z,99434.36
2023-05-15T11:17:12.136Z,99431.12
2023-05-15T11:19:51.795Z,99425.23
2023-05-15T11:22:19.962Z,99424.42
2023-05-15T11:25:12.258Z,99424.76
2023-05-15T11:27:40.780Z,99428.85
2023-05-15T11:30:20.689Z,99425.50
2023-05-15T11:32:47.867Z,99412.75
2023-05-15T11:35:20.000Z,99406.92
2023-05-15T11:37:48.734Z,99408.34
2023-05-15T11:40:26.776Z,99399.83
2023-05-15T11:43:07.402Z,99404.68
2023-05-15T11:45:37.018Z,99407.96
2023-05-15T11:48:05.013Z,99406.19
2023-05-15T11:50:33.992Z,99403.05
2023-05-15T11:53:08.362Z,99399.65
2023-05-15T11:55:37.061Z,99394.69
2023-05-15T11:58:04.544Z,99393.89
2023-05-15T12:00:32.152Z,99392.80
2023-05-15T12:02:59.610Z,99398.42
2023-05-15T12:05:26.818Z,99400.92
2023-05-15T12:07:54.075Z,99398.29
2023-05-15T12:10:21.124Z,99386.10
2023-05-15T12:12:48.775Z,99383.18
2023-05-15T12:15:17.485Z,99379.95
2023-05-15T12:17:45.424Z,99383.60
2023-05-15T12:20:17.088Z,99377.90
2023-05-15T12:22:44.463Z,99379.45
2023-05-15T12:25:12.634Z,99380.95
2023-05-15T12:27:39.794Z,99382.67
2023-05-15T12:30:07.598Z,99386.90
2023-05-15T12:32:36.238Z,99388.83
2023-05-15T12:35:04.004Z,99391.33
2023-05-15T12:37:35.889Z,99390.61
2023-05-15T12:40:13.233Z,99394.11
2023-05-15T12:42:43.599Z,99388.13
2023-05-15T12:45:18.612Z,99383.44
2023-05-15T12:47:46.973Z,99384.35
2023-05-15T12:50:22.154Z,99386.42
2023-05-15T12:52:53.384Z,99383.85
2023-05-15T12:55:34.150Z,99381.77
2023-05-15T12:58:04.584Z,99379.43
2023-05-15T13:00:34.607Z,99382.02
2023-05-15T13:03:02.246Z,99376.73
2023-05-15T13:05:32.284Z,99374.89
2023-05-15T13:10:47.992Z,99378.05
2023-05-15T13:13:15.766Z,99379.68
2023-05-15T13:15:46.226Z,99375.79
2023-05-15T13:18:14.635Z,99372.39
2023-05-15T13:20:46.546Z,99377.69
2023-05-15T13:23:16.355Z,99377.26
2023-05-15T13:25:43.823Z,99371.91
2023-05-15T13:28:11.468Z,99373.00
2023-05-15T13:30:42.242Z,99364.39
2023-05-15T13:33:13.014Z,99361.61
2023-05-15T13:35:40.516Z,99363.36
2023-05-15T13:38:11.178Z,99366.46
2023-05-15T13:40:39.329Z,99365.02
2023-05-15T13:43:07.039Z,99367.45
2023-05-15T13:45:34.422Z,99360.75
2023-05-15T13:48:01.992Z,99357.44
2023-05-15T13:50:29.271Z,99351.13
2023-05-15T13:52:56.622Z,99357.58
2023-05-15T13:55:24.274Z,99357.00
2023-05-15T13:57:52.351Z,99350.58
2023-05-15T14:00:20.366Z,99349.24
2023-05-15T14:02:48.539Z,99349.14
2023-05-15T14:05:16.596Z,99351.70
2023-05-15T14:07:43.936Z,99353.71
2023-05-15T14:10:12.214Z,99346.14
2023-05-15T14:12:39.969Z,99343.30
2023-05-15T14:15:07.798Z,99345.90
2023-05-15T14:17:35.534Z,99339.66
2023-05-15T14:20:02.863Z,99339.25
2023-05-15T14:22:30.118Z,99336.81
2023-05-15T14:24:57.572Z,99333.95
2023-05-15T14:27:24.726Z,99330.48
2023-05-15T14:29:52.384Z,99324.83
2023-05-15T14:32:19.785Z,99330.20
2023-05-15T14:34:47.313Z,99330.86
2023-05-15T14:37:14.462Z,99330.73
2023-05-15T14:39:41.615Z,99328.81
2023-05-15T14:42:08.758Z,99326.97
2023-05-15T14:44:35.919Z,99326.89
2023-05-15T14:47:07.884Z,99326.73
2023-05-15T14:49:36.055Z,99324.31
2023-05-15T14:52:03.855Z,99321.08
2023-05-15T14:54:32.327Z,99316.25
2023-05-15T14:57:00.368Z,99314.33
2023-05-15T14:59:28.245Z,99309.64
2023-05-15T15:01:55.675Z,99310.04
2023-05-15T15:04:22.850Z,99307.83
2023-05-15T15:06:50.101Z,99307.92
2023-05-15T15:09:19.536Z,99312.14
2023-05-15T15:11:48.201Z,99310.38
2023-05-15T15:14:15.346Z,99311.48
2023-05-15T15:16:44.500Z,99308.15
2023-05-15T15:19:12.655Z,99306.69
2023-05-15T15:21:40.227Z,99306.39
2023-05-15T15:24:07.482Z,99307.92
2023-05-15T15:26:34.592Z,99304.89
2023-05-15T15:29:01.847Z,99307.10
2023-05-15T15:31:29.934Z,99308.41
2023-05-15T15:33:57.501Z,99309.18
2023-05-15T15:36:25.157Z,99306.31
2023-05-15T15:38:52.506Z,99307.51
2023-05-15T15:41:21.797Z,99304.45
2023-05-15T15:43:49.167Z,99307.36
2023-05-15T15:46:16.357Z,99309.86
2023-05-15T15:48:43.495Z,99309.48
2023-05-15T15:51:10.619Z,99308.29
2023-05-15T15:53:38.694Z,99309.13
2023-05-15T15:56:07.369Z,99305.77
2023-05-15T15:58:34.536Z,99308.48
2023-05-15T16:01:02.787Z,99307.16
2023-05-15T16:03:31.802Z,99305.94
2023-05-15T16:06:00.351Z,99304.42
2023-05-15T16:08:27.961Z,99304.80
2023-05-15T16:10:55.434Z,99302.76
2023-05-15T16:13:23.708Z,99301.98
2023-05-15T16:15:50.973Z,99304.35
2023-05-15T16:18:18.117Z,99306.30
2023-05-15T16:20:45.265Z,99305.89
2023-05-15T16:23:15.427Z,99306.65
2023-05-15T16:25:44.397Z,99306.58
2023-05-15T16:28:12.385Z,99304.92
2023-05-15T16:30:48.741Z,99301.50
2023-05-15T16:33:17.999Z,99300.86
2023-05-15T16:35:45.791Z,99305.27
2023-05-15T16:38:13.568Z,99304.06
2023-05-15T16:40:40.712Z,99294.41
2023-05-15T16:43:07.962Z,99302.18
2023-05-15T16:45:35.053Z,99303.92
2023-05-15T16:48:02.242Z,99307.16
2023-05-15T16:50:31.175Z,99302.54
2023-05-15T16:52:59.262Z,99302.41
2023-05-15T16:55:26.808Z,99302.30
2023-05-15T16:57:53.952Z,99304.61
2023-05-15T17:00:21.541Z,99305.75
2023-05-15T17:02:49.461Z,99306.36
2023-05-15T17:05:16.809Z,99310.79
2023-05-15T17:07:44.745Z,99312.39
2023-05-15T17:10:12.384Z,99314.16
2023-05-15T17:12:39.539Z,99312.90
2023-05-15T17:15:07.548Z,99314.08
2023-05-15T17:17:34.836Z,99309.98
2023-05-15T17:20:03.147Z,99312.23
2023-05-15T17:22:30.707Z,99309.30
2023-05-15T17:24:57.956Z,99311.60
2023-05-15T17:27:25.049Z,99313.38
2023-05-15T17:29:52.324Z,99316.75
2023-05-15T17:32:19.767Z,99319.45
2023-05-15T17:34:47.303Z,99320.18
2023-05-15T17:37:14.661Z,99325.36
2023-05-15T17:39:41.916Z,99322.67
2023-05-15T17:42:09.051Z,99331.70
2023-05-15T17:44:36.608Z,99331.72
2023-05-15T17:47:03.872Z,99334.35
2023-05-15T17:49:31.226Z,99333.20
2023-05-15T17:51:58.380Z,99338.88
2023-05-15T17:54:25.838Z,99341.89
2023-05-15T17:56:52.989Z,99344.88
2023-05-15T17:59:20.144Z,99347.53
2023-05-15T18:01:47.350Z,99346.46
2023-05-15T18:04:15.049Z,99349.21
2023-05-15T18:06:42.416Z,99347.59
2023-05-15T18:09:09.784Z,99343.98
2023-05-15T18:11:37.036Z,99347.45
2023-05-15T18:14:04.183Z,99351.54
2023-05-15T18:16:32.980Z,99350.27
2023-05-15T18:19:00.506Z,99352.20
2023-05-15T18:21:27.790Z,99351.75
2023-05-15T18:23:54.946Z,99356.04
2023-05-15T18:26:22.403Z,99358.52
2023-05-15T18:28:49.973Z,99357.15
2023-05-15T18:31:17.181Z,99361.61
2023-05-15T18:33:45.331Z,99369.04
2023-05-15T18:36:12.561Z,99371.40
2023-05-15T18:38:39.808Z,99371.58
2023-05-15T18:41:06.971Z,99373.15
2023-05-15T18:43:34.115Z,99374.64
2023-05-15T18:46:01.485Z,99382.19
2023-05-15T18:48:28.642Z,99377.56
2023-05-15T18:50:56.189Z,99371.19
2023-05-15T18:53:23.362Z,99373.77
2023-05-15T18:55:50.605Z,99372.05
2023-05-15T18:58:17.852Z,99373.48
2023-05-15T19:00:45.091Z,99372.55
2023-05-15T19:03:12.445Z,99372.81
2023-05-15T19:05:39.729Z,99372.05
2023-05-15T19:08:07.490Z,99367.48
2023-05-15T19:10:34.650Z,99371.04
2023-05-15T19:13:01.793Z,99371.81
2023-05-15T19:15:28.949Z,99372.67
2023-05-15T19:17:56.328Z,99375.48
2023-05-15T19:20:23.657Z,99379.46
2023-05-15T19:22:51.116Z,99379.74
2023-05-15T19:25:18.279Z,99382.26
2023-05-15T19:27:46.344Z,99387.45
2023-05-15T19:30:13.503Z,99393.59
2023-05-15T19:32:40.945Z,99394.66
2023-05-15T19:35:09.352Z,99396.95
2023-05-15T19:37:36.804Z,99397.73
2023-05-15T19:40:04.833Z,99399.60
2023-05-15T19:42:31.927Z,99403.61
2023-05-15T19:44:59.080Z,99401.81
2023-05-15T19:47:27.026Z,99407.89
2023-05-15T19:49:54.412Z,99410.24
2023-05-15T19:52:21.562Z,99409.75
2023-05-15T19:54:48.711Z,99410.95
2023-05-15T19:57:16.172Z,99413.29
2023-05-15T19:59:43.330Z,99407.88
2023-05-15T20:02:11.484Z,99411.43
2023-05-15T20:04:38.774Z,99413.66
2023-05-15T20:07:05.910Z,99425.45
2023-05-15T20:09:33.267Z,99425.04
2023-05-15T20:12:01.043Z,99425.46
2023-05-15T20:14:28.286Z,99426.04
2023-05-15T20:16:55.440Z,99427.96
2023-05-15T20:19:24.776Z,99429.24
2023-05-15T20:21:52.205Z,99430.20
2023-05-15T20:24:19.464Z,99428.05
2023-05-15T20:26:46.613Z,99428.14
2023-05-15T20:29:13.869Z,99428.15
2023-05-15T20:31:41.160Z,99423.33
2023-05-15T20:34:08.472Z,99425.61
2023-05-15T20:36:39.094Z,99422.08
2023-05-15T20:39:07.676Z,99422.56
2023-05-15T20:41:35.065Z,99423.66
2023-05-15T20:44:02.427Z,99422.52
2023-05-15T20:46:30.723Z,99427.00
2023-05-15T20:48:58.162Z,99423.90
2023-05-15T20:51:25.517Z,99425.08
2023-05-15T20:53:52.672Z,99424.71
2023-05-15T20:56:19.938Z,99421.83
2023-05-15T20:58:47.080Z,99420.59
2023-05-15T21:01:16.047Z,99421.48
2023-05-15T21:03:43.698Z,99413.18
2023-05-15T21:06:11.306Z,99413.05
2023-05-15T21:08:38.456Z,99413.07
2023-05-15T21:11:05.707Z,99410.50
2023-05-15T21:13:32.889Z,99411.10
2023-05-15T21:16:00.035Z,99408.08
2023-05-15T21:18:27.138Z,99411.40
2023-05-15T21:20:54.220Z,99414.34
2023-05-15T21:23:21.681Z,99414.57
2023-05-15T21:25:48.839Z,99417.17
2023-05-15T21:28:16.397Z,99416.86
2023-05-15T21:30:43.563Z,99412.34
2023-05-15T21:33:10.960Z,99416.27
2023-05-15T21:35:38.465Z,99418.66
2023-05-15T21:38:05.734Z,99418.67
2023-05-15T21:40:33.102Z,99422.45
2023-05-15T21:43:00.338Z,99423.16
2023-05-15T21:45:27.487Z,99422.56
2023-05-15T21:47:54.708Z,99420.63
2023-05-15T21:50:21.897Z,99423.16
2023-05-15T21:52:51.126Z,99419.81
2023-05-15T21:55:18.562Z,99416.54
2023-05-15T21:57:45.710Z,99416.98
2023-05-15T22:00:14.229Z,99416.98
2023-05-15T22:02:41.678Z,99421.93
2023-05-15T22:05:09.043Z,99423.05
2023-05-15T22:07:36.262Z,99423.30
2023-05-15T22:10:03.937Z,99421.38
2023-05-15T22:12:32.514Z,99421.84
2023-05-15T22:15:00.076Z,99417.85
2023-05-15T22:17:29.458Z,99419.27
2023-05-15T22:20:07.678Z,99416.55
2023-05-15T22:22:35.830Z,99414.00
2023-05-15T22:25:03.946Z,99411.84
2023-05-15T22:27:31.200Z,99409.59
2023-05-15T22:29:58.364Z,99411.27
2023-05-15T22:32:26.144Z,99407.92
2023-05-15T22:34:53.376Z,99401.77
2023-05-15T22:37:20.738Z,99396.69
2023-05-15T22:39:48.020Z,99392.17
2023-05-15T22:42:15.548Z,99392.81
2023-05-15T22:44:42.702Z,99392.98
2023-05-15T22:47:09.867Z,99395.02
2023-05-15T22:49:38.333Z,99393.77
2023-05-15T22:52:06.240Z,99392.91
2023-05-15T22:54:33.668Z,99391.60
2023-05-15T22:57:01.329Z,99392.13
2023-05-15T22:59:28.690Z,99391.73
2023-05-15T23:01:56.055Z,99387.61
2023-05-15T23:04:23.265Z,99386.27
2023-05-15T23:06:50.448Z,99385.27
2023-05-15T23:09:17.600Z,99383.56
2023-05-15T23:11:44.752Z,99378.42
2023-05-15T23:14:12.416Z,99377.82
2023-05-15T23:16:39.571Z,99373.52
2023-05-15T23:19:06.813Z,99372.45
2023-05-15T23:21:34.073Z,99367.60
2023-05-15T23:24:01.433Z,99367.94
2023-05-15T23:26:28.589Z,99367.95
2023-05-15T23:28:55.740Z,99363.67
2023-05-15T23:31:23.139Z,99365.31
2023-05-15T23:33:50.987Z,99357.44
2023-05-15T23:36:18.527Z,99359.39
2023-05-15T23:38:45.808Z,99358.46
2023-05-15T23:41:13.036Z,99356.44
2023-05-15T23:43:40.188Z,99358.71
2023-05-15T23:46:07.370Z,99355.60
2023-05-15T23:48:34.589Z,99357.08
2023-05-15T23:51:01.843Z,99354.11
2023-05-15T23:53:29.001Z,99353.95
2023-05-15T23:55:56.152Z,99354.90
2023-05-15T23:58:23.912Z,99359.27
